Time;durP1;ratioP1;P1;durP2;ratioP2;P2;SDS_P1;SDS_P2;PMS_P1;PMS_P2;Temp;Humidity;BMP_temperature;BMP_pressure;BME280_temperature;BME280_humidity;BME280_pressure;Samples;Min_cycle;Max_cycle;Signal;HPM_P1;HPM_P2
2019/06/02 00:00:52;;;;;;;2.19;1.51;;;;;;;20.61;50.72;100770.90;;;;-53
2019/06/02 00:03:52;;;;;;;1.83;1.40;;;;;;;20.61;50.74;100771.36;;;;-53
2019/06/02 00:06:52;;;;;;;1.75;1.35;;;;;;;20.60;50.82;100772.27;;;;-52
2019/06/02 00:09:52;;;;;;;1.57;1.37;;;;;;;20.60;50.79;100774.50;;;;-53
2019/06/02 00:12:52;;;;;;;1.45;1.35;;;;;;;20.59;50.75;100775.30;;;;-53
2019/06/02 00:15:52;;;;;;;1.46;1.36;;;;;;;20.59;50.77;100772.89;;;;-53
2019/06/02 00:18:52;;;;;;;1.39;1.27;;;;;;;20.59;50.80;100769.70;;;;-53
2019/06/02 00:21:52;;;;;;;1.45;1.34;;;;;;;20.58;50.80;100771.34;;;;-53
2019/06/02 00:24:52;;;;;;;1.38;1.28;;;;;;;20.59;50.78;100772.28;;;;-53
2019/06/02 00:27:52;;;;;;;1.52;1.42;;;;;;;20.58;50.77;100769.05;;;;-52
2019/06/02 00:30:52;;;;;;;1.83;1.40;;;;;;;20.56;50.77;100769.73;;;;-53
2019/06/02 00:33:52;;;;;;;1.65;1.40;;;;;;;20.57;50.79;100763.84;;;;-53
2019/06/02 00:36:52;;;;;;;1.40;1.30;;;;;;;20.57;50.80;100765.18;;;;-53
2019/06/02 00:39:52;;;;;;;1.67;1.41;;;;;;;20.57;50.75;100765.25;;;;-53
2019/06/02 00:42:52;;;;;;;1.44;1.33;;;;;;;20.56;50.78;100761.52;;;;-52
2019/06/02 00:45:52;;;;;;;1.46;1.33;;;;;;;20.56;50.76;100761.51;;;;-52
2019/06/02 00:48:52;;;;;;;1.40;1.30;;;;;;;20.56;50.77;100761.23;;;;-53
2019/06/02 00:51:52;;;;;;;2.23;1.46;;;;;;;20.55;50.76;100761.64;;;;-52
2019/06/02 00:54:52;;;;;;;1.50;1.40;;;;;;;20.56;50.78;100763.92;;;;-52
2019/06/02 00:57:52;;;;;;;1.54;1.40;;;;;;;20.55;50.75;100757.61;;;;-53
2019/06/02 01:00:52;;;;;;;1.45;1.35;;;;;;;20.55;50.76;100758.95;;;;-53
2019/06/02 01:03:52;;;;;;;1.55;1.31;;;;;;;20.55;50.75;100759.22;;;;-53
2019/06/02 01:06:52;;;;;;;2.61;1.49;;;;;;;20.55;50.79;100754.19;;;;-52
2019/06/02 01:09:52;;;;;;;1.48;1.25;;;;;;;20.54;50.74;100754.98;;;;-52
2019/06/02 01:12:52;;;;;;;1.69;1.30;;;;;;;20.54;50.78;100751.02;;;;-52
2019/06/02 01:15:52;;;;;;;1.47;1.37;;;;;;;20.54;50.75;100747.05;;;;-53
2019/06/02 01:18:51;;;;;;;1.70;1.43;;;;;;;20.54;50.79;100748.22;;;;-52
2019/06/02 01:21:52;;;;;;;1.62;1.47;;;;;;;20.54;50.74;100745.87;;;;-52
2019/06/02 01:24:52;;;;;;;1.40;1.30;;;;;;;20.53;50.75;100744.53;;;;-52
2019/06/02 01:27:52;;;;;;;1.40;1.30;;;;;;;20.53;50.76;100750.13;;;;-53
2019/06/02 01:30:52;;;;;;;1.41;1.31;;;;;;;20.53;50.76;100747.95;;;;-53
2019/06/02 01:33:52;;;;;;;1.38;1.28;;;;;;;20.53;50.73;100743.31;;;;-53
2019/06/02 01:36:52;;;;;;;2.07;1.30;;;;;;;20.52;50.76;100737.77;;;;-52
2019/06/02 01:39:52;;;;;;;1.40;1.30;;;;;;;20.52;50.78;100738.34;;;;-52
2019/06/02 01:42:52;;;;;;;1.59;1.49;;;;;;;20.52;50.72;100734.35;;;;-53
2019/06/02 01:45:53;;;;;;;1.45;1.35;;;;;;;20.52;50.71;100735.48;;;;-52
2019/06/02 01:48:52;;;;;;;1.40;1.30;;;;;;;20.52;50.73;100732.36;;;;-53
2019/06/02 01:51:52;;;;;;;1.50;1.40;;;;;;;20.51;50.77;100731.80;;;;-53
2019/06/02 01:54:52;;;;;;;1.39;1.29;;;;;;;20.52;50.72;100733.64;;;;-54
2019/06/02 01:57:52;;;;;;;1.46;1.36;;;;;;;20.50;50.75;100732.59;;;;-52
2019/06/02 02:00:52;;;;;;;1.40;1.30;;;;;;;20.51;50.72;100732.83;;;;-52
2019/06/02 02:03:52;;;;;;;1.43;1.33;;;;;;;20.51;50.70;100735.82;;;;-53
2019/06/02 02:06:52;;;;;;;1.37;1.27;;;;;;;20.50;50.74;100732.05;;;;-52
2019/06/02 02:09:52;;;;;;;1.40;1.30;;;;;;;20.51;50.73;100733.49;;;;-53
2019/06/02 02:12:52;;;;;;;1.31;1.21;;;;;;;20.50;50.73;100733.25;;;;-53
2019/06/02 02:15:52;;;;;;;1.32;1.22;;;;;;;20.50;50.73;100735.84;;;;-52
2019/06/02 02:18:51;;;;;;;1.50;1.40;;;;;;;20.50;50.70;100736.34;;;;-52
2019/06/02 02:21:52;;;;;;;1.44;1.33;;;;;;;20.50;50.73;100736.58;;;;-52
2019/06/02 02:24:52;;;;;;;1.37;1.27;;;;;;;20.49;50.72;100735.96;;;;-52
2019/06/02 02:27:52;;;;;;;1.42;1.32;;;;;;;20.50;50.70;100734.63;;;;-52
2019/06/02 02:30:52;;;;;;;2.15;1.32;;;;;;;20.49;50.71;100735.23;;;;-53
2019/06/02 02:33:52;;;;;;;1.40;1.30;;;;;;;20.49;50.72;100735.45;;;;-52
2019/06/02 02:36:52;;;;;;;1.41;1.31;;;;;;;20.48;50.73;100731.66;;;;-53
2019/06/02 02:39:52;;;;;;;1.42;1.31;;;;;;;20.49;50.68;100728.54;;;;-52
2019/06/02 02:42:52;;;;;;;1.53;1.37;;;;;;;20.49;50.68;100724.84;;;;-52
2019/06/02 02:45:52;;;;;;;1.41;1.31;;;;;;;20.48;50.75;100723.80;;;;-53
2019/06/02 02:48:52;;;;;;;1.65;1.35;;;;;;;20.48;50.69;100721.22;;;;-54
2019/06/02 02:51:52;;;;;;;1.83;1.46;;;;;;;20.48;50.73;100713.56;;;;-52
2019/06/02 02:54:52;;;;;;;1.46;1.30;;;;;;;20.47;50.68;100715.57;;;;-52
2019/06/02 02:57:52;;;;;;;1.50;1.40;;;;;;;20.48;50.73;100719.09;;;;-53
2019/06/02 03:00:52;;;;;;;1.59;1.47;;;;;;;20.48;50.71;100722.28;;;;-52
2019/06/02 03:03:52;;;;;;;1.45;1.35;;;;;;;20.47;50.73;100720.27;;;;-52
2019/06/02 03:06:52;;;;;;;1.40;1.30;;;;;;;20.47;50.68;100724.23;;;;-53
2019/06/02 03:09:52;;;;;;;1.41;1.30;;;;;;;20.47;50.73;100726.70;;;;-53
2019/06/02 03:12:52;;;;;;;1.30;1.20;;;;;;;20.47;50.69;100726.03;;;;-52
2019/06/02 03:15:52;;;;;;;1.50;1.40;;;;;;;20.47;50.69;100725.80;;;;-52
2019/06/02 03:18:51;;;;;;;1.52;1.42;;;;;;;20.46;50.69;100726.16;;;;-52
2019/06/02 03:21:52;;;;;;;1.31;1.21;;;;;;;20.46;50.69;100726.77;;;;-53
2019/06/02 03:24:52;;;;;;;1.33;1.24;;;;;;;20.46;50.69;100725.32;;;;-53
2019/06/02 03:27:52;;;;;;;2.74;1.27;;;;;;;20.45;50.65;100720.95;;;;-53
2019/06/02 03:30:52;;;;;;;1.40;1.30;;;;;;;20.45;50.74;100721.13;;;;-52
2019/06/02 03:33:52;;;;;;;1.30;1.20;;;;;;;20.45;50.68;100723.47;;;;-53
2019/06/02 03:36:52;;;;;;;1.38;1.30;;;;;;;20.45;50.69;100721.69;;;;-53
2019/06/02 03:39:52;;;;;;;1.41;1.31;;;;;;;20.45;50.68;100719.91;;;;-52
2019/06/02 03:42:51;;;;;;;1.31;1.21;;;;;;;20.45;50.67;100723.70;;;;-52
2019/06/02 03:45:52;;;;;;;1.40;1.30;;;;;;;20.45;50.73;100721.34;;;;-52
2019/06/02 03:48:52;;;;;;;1.39;1.29;;;;;;;20.45;50.69;100724.77;;;;-52
2019/06/02 03:51:52;;;;;;;1.39;1.29;;;;;;;20.45;50.73;100721.18;;;;-52
2019/06/02 03:54:52;;;;;;;1.43;1.33;;;;;;;20.44;50.68;100723.42;;;;-53
2019/06/02 03:57:52;;;;;;;1.40;1.30;;;;;;;20.44;50.64;100726.61;;;;-53
2019/06/02 04:00:52;;;;;;;1.40;1.30;;;;;;;20.44;50.68;100728.02;;;;-53
2019/06/02 04:03:51;;;;;;;1.39;1.29;;;;;;;20.44;50.71;100727.01;;;;-53
2019/06/02 04:06:52;;;;;;;1.45;1.35;;;;;;;20.44;50.64;100727.95;;;;-52
2019/06/02 04:09:52;;;;;;;1.50;1.40;;;;;;;20.44;50.64;100725.06;;;;-53
2019/06/02 04:12:52;;;;;;;1.40;1.30;;;;;;;20.44;50.67;100723.09;;;;-53
2019/06/02 04:15:52;;;;;;;1.40;1.30;;;;;;;20.44;50.69;100724.32;;;;-52
2019/06/02 04:18:52;;;;;;;1.37;1.27;;;;;;;20.44;50.64;100720.97;;;;-52
2019/06/02 04:21:51;;;;;;;1.37;1.27;;;;;;;20.43;50.67;100719.91;;;;-52
2019/06/02 04:24:52;;;;;;;1.40;1.30;;;;;;;20.42;50.69;100721.05;;;;-53
2019/06/02 04:27:52;;;;;;;1.39;1.29;;;;;;;20.43;50.70;100724.55;;;;-52
2019/06/02 04:30:52;;;;;;;1.35;1.27;;;;;;;20.43;50.64;100725.45;;;;-52
2019/06/02 04:33:52;;;;;;;1.40;1.30;;;;;;;20.43;50.69;100722.04;;;;-53
2019/06/02 04:36:52;;;;;;;1.36;1.26;;;;;;;20.43;50.67;100723.61;;;;-52
2019/06/02 04:39:52;;;;;;;1.40;1.30;;;;;;;20.43;50.65;100725.95;;;;-52
2019/06/02 04:42:51;;;;;;;1.41;1.31;;;;;;;20.43;50.67;100726.96;;;;-52
2019/06/02 04:45:52;;;;;;;1.39;1.29;;;;;;;20.43;50.61;100722.09;;;;-52
2019/06/02 04:48:52;;;;;;;1.30;1.20;;;;;;;20.43;50.68;100725.36;;;;-52
2019/06/02 04:51:52;;;;;;;4.53;1.73;;;;;;;20.40;52.02;100719.45;;;;-53
2019/06/02 04:54:52;;;;;;;2.10;1.90;;;;;;;20.39;52.79;100718.57;;;;-53
2019/06/02 04:57:52;;;;;;;2.27;2.10;;;;;;;20.42;52.93;100720.88;;;;-52
2019/06/02 05:00:52;;;;;;;3.61;2.20;;;;;;;20.42;52.51;100719.03;;;;-52
2019/06/02 05:03:51;;;;;;;2.49;2.13;;;;;;;20.43;52.34;100718.64;;;;-52
2019/06/02 05:06:51;;;;;;;2.33;1.93;;;;;;;20.45;52.14;100723.77;;;;-52
2019/06/02 05:09:52;;;;;;;3.25;2.10;;;;;;;20.44;52.08;100720.74;;;;-52
2019/06/02 05:12:52;;;;;;;3.35;1.97;;;;;;;20.45;51.95;100719.61;;;;-52
2019/06/02 05:15:52;;;;;;;2.87;1.89;;;;;;;20.46;51.88;100724.65;;;;-52
2019/06/02 05:18:52;;;;;;;1.95;1.85;;;;;;;20.45;51.79;100724.98;;;;-52
2019/06/02 05:21:52;;;;;;;3.57;1.97;;;;;;;20.45;51.74;100727.12;;;;-52
2019/06/02 05:24:51;;;;;;;2.23;1.80;;;;;;;20.45;51.60;100726.39;;;;-52
2019/06/02 05:27:52;;;;;;;1.80;1.70;;;;;;;20.45;51.56;100726.62;;;;-52
2019/06/02 05:30:52;;;;;;;1.89;1.74;;;;;;;20.45;51.52;100732.76;;;;-52
2019/06/02 05:33:52;;;;;;;2.01;1.81;;;;;;;20.45;51.46;100726.95;;;;-52
2019/06/02 05:36:51;;;;;;;1.89;1.74;;;;;;;20.45;51.48;100730.69;;;;-52
2019/06/02 05:39:52;;;;;;;2.01;1.74;;;;;;;20.45;51.38;100731.69;;;;-53
2019/06/02 05:42:52;;;;;;;1.82;1.72;;;;;;;20.45;51.36;100730.91;;;;-52
2019/06/02 05:45:52;;;;;;;1.92;1.81;;;;;;;20.45;51.34;100728.90;;;;-52
2019/06/02 05:48:52;;;;;;;1.89;1.75;;;;;;;20.45;51.27;100728.97;;;;-53
2019/06/02 05:51:52;;;;;;;1.89;1.77;;;;;;;20.45;51.21;100730.64;;;;-53
2019/06/02 05:54:52;;;;;;;1.87;1.66;;;;;;;20.45;51.22;100731.31;;;;-52
2019/06/02 05:57:52;;;;;;;2.00;1.80;;;;;;;20.45;51.22;100728.97;;;;-52
2019/06/02 06:00:52;;;;;;;1.80;1.70;;;;;;;20.45;51.17;100726.62;;;;-52
2019/06/02 06:03:52;;;;;;;2.09;1.80;;;;;;;20.45;51.14;100726.12;;;;-52
2019/06/02 06:06:52;;;;;;;2.32;1.74;;;;;;;20.44;51.12;100725.77;;;;-52
2019/06/02 06:09:52;;;;;;;1.87;1.77;;;;;;;20.45;51.13;100733.26;;;;-52
2019/06/02 06:12:52;;;;;;;1.77;1.67;;;;;;;20.45;51.08;100730.91;;;;-52
2019/06/02 06:15:52;;;;;;;1.91;1.77;;;;;;;20.45;51.10;100731.48;;;;-53
2019/06/02 06:18:52;;;;;;;1.88;1.78;;;;;;;20.44;51.07;100729.97;;;;-52
2019/06/02 06:21:52;;;;;;;1.94;1.84;;;;;;;20.45;51.05;100728.63;;;;-53
2019/06/02 06:24:52;;;;;;;1.80;1.70;;;;;;;20.45;51.03;100726.62;;;;-52
2019/06/02 06:27:51;;;;;;;1.78;1.68;;;;;;;20.43;51.03;100723.17;;;;-53
2019/06/02 06:30:52;;;;;;;1.87;1.77;;;;;;;20.44;51.03;100722.88;;;;-52
2019/06/02 06:33:52;;;;;;;2.25;1.80;;;;;;;20.45;50.99;100721.92;;;;-52
2019/06/02 06:36:52;;;;;;;1.85;1.75;;;;;;;20.44;50.98;100722.38;;;;-52
2019/06/02 06:39:52;;;;;;;1.89;1.79;;;;;;;20.44;50.98;100723.05;;;;-52
2019/06/02 06:42:52;;;;;;;1.96;1.83;;;;;;;20.43;50.98;100722.54;;;;-52
2019/06/02 06:45:52;;;;;;;1.81;1.71;;;;;;;20.44;50.94;100721.87;;;;-52
2019/06/02 06:48:52;;;;;;;1.92;1.70;;;;;;;20.44;50.93;100725.94;;;;-52
2019/06/02 06:51:52;;;;;;;1.81;1.71;;;;;;;20.43;50.96;100724.72;;;;-53
2019/06/02 06:54:51;;;;;;;1.80;1.70;;;;;;;20.44;50.90;100725.91;;;;-52
2019/06/02 06:57:52;;;;;;;1.86;1.76;;;;;;;20.44;50.89;100722.65;;;;-52
2019/06/02 07:00:52;;;;;;;1.71;1.61;;;;;;;20.43;50.88;100722.04;;;;-52
2019/06/02 07:03:52;;;;;;;1.65;1.55;;;;;;;20.43;50.90;100726.06;;;;-52
2019/06/02 07:06:52;;;;;;;1.80;1.70;;;;;;;20.43;50.89;100725.63;;;;-52
2019/06/02 07:09:52;;;;;;;1.90;1.79;;;;;;;20.43;50.85;100716.50;;;;-52
2019/06/02 07:12:52;;;;;;;1.81;1.71;;;;;;;20.43;50.88;100718.02;;;;-52
2019/06/02 07:15:52;;;;;;;1.70;1.60;;;;;;;20.43;50.84;100718.34;;;;-52
2019/06/02 07:18:52;;;;;;;1.71;1.61;;;;;;;20.43;50.85;100718.85;;;;-52
2019/06/02 07:21:52;;;;;;;1.70;1.60;;;;;;;20.44;50.88;100720.63;;;;-52
2019/06/02 07:24:52;;;;;;;1.74;1.64;;;;;;;20.43;50.83;100717.80;;;;-52
2019/06/02 07:27:52;;;;;;;1.79;1.67;;;;;;;20.42;50.85;100717.80;;;;-52
2019/06/02 07:30:52;;;;;;;1.76;1.66;;;;;;;20.43;50.80;100716.23;;;;-52
2019/06/02 07:33:51;;;;;;;1.77;1.67;;;;;;;20.43;50.79;100719.92;;;;-51
2019/06/02 07:36:51;;;;;;;1.77;1.65;;;;;;;20.43;50.79;100720.66;;;;-52
2019/06/02 07:39:51;;;;;;;1.73;1.63;;;;;;;20.43;50.82;100714.55;;;;-52
2019/06/02 07:42:51;;;;;;;1.67;1.57;;;;;;;20.43;50.79;100713.95;;;;-52
2019/06/02 07:45:52;;;;;;;1.74;1.64;;;;;;;20.42;50.77;100712.59;;;;-52
2019/06/02 07:48:51;;;;;;;1.71;1.61;;;;;;;20.43;50.80;100712.20;;;;-52
2019/06/02 07:51:52;;;;;;;1.81;1.71;;;;;;;20.43;50.77;100714.95;;;;-52
2019/06/02 07:54:52;;;;;;;1.81;1.71;;;;;;;20.42;50.74;100713.34;;;;-55
2019/06/02 07:57:52;;;;;;;1.73;1.63;;;;;;;20.42;50.72;100714.07;;;;-55
2019/06/02 08:00:52;;;;;;;1.71;1.61;;;;;;;20.42;50.75;100714.95;;;;-55
2019/06/02 08:03:51;;;;;;;1.57;1.47;;;;;;;20.42;50.74;100712.09;;;;-55
2019/06/02 08:06:51;;;;;;;2.06;1.71;;;;;;;20.43;50.70;100707.67;;;;-55
2019/06/02 08:09:51;;;;;;;1.75;1.65;;;;;;;20.42;50.74;100705.22;;;;-55
2019/06/02 08:12:52;;;;;;;1.79;1.68;;;;;;;20.42;50.76;100703.44;;;;-55
2019/06/02 08:15:52;;;;;;;1.71;1.61;;;;;;;20.42;50.82;100704.05;;;;-55
2019/06/02 08:18:52;;;;;;;1.76;1.66;;;;;;;20.42;50.73;100701.25;;;;-55
2019/06/02 08:21:52;;;;;;;1.71;1.61;;;;;;;20.42;50.69;100704.51;;;;-55
2019/06/02 08:24:52;;;;;;;2.01;1.61;;;;;;;20.44;50.88;100700.44;;;;-60
2019/06/02 08:27:51;;;;;;;3.02;1.67;;;;;;;20.45;51.27;100698.03;;;;-62
2019/06/02 08:30:52;;;;;;;3.88;1.75;;;;;;;20.46;51.57;100697.98;;;;-55
2019/06/02 08:33:51;;;;;;;2.95;1.61;;;;;;;20.48;51.59;100693.30;;;;-62
2019/06/02 08:36:51;;;;;;;2.78;1.81;;;;;;;20.49;51.58;100687.61;;;;-61
2019/06/02 08:39:52;;;;;;;2.25;1.70;;;;;;;20.51;51.64;100682.02;;;;-63
2019/06/02 08:42:52;;;;;;;2.06;1.73;;;;;;;20.53;51.65;100680.23;;;;-61
2019/06/02 08:45:53;;;;;;;3.35;1.95;;;;;;;20.54;51.71;100674.27;;;;-62
2019/06/02 08:48:52;;;;;;;4.61;1.77;;;;;;;20.56;51.76;100674.42;;;;-63
2019/06/02 08:51:51;;;;;;;5.04;2.01;;;;;;;20.60;51.77;100673.15;;;;-58
2019/06/02 08:54:51;;;;;;;5.21;1.77;;;;;;;20.65;52.07;100673.64;;;;-59
2019/06/02 08:57:52;;;;;;;4.20;1.79;;;;;;;20.67;52.08;100665.16;;;;-59
2019/06/02 09:00:52;;;;;;;4.71;1.99;;;;;;;20.71;52.26;100668.86;;;;-59
2019/06/02 09:03:52;;;;;;;5.75;2.03;;;;;;;20.74;52.57;100669.56;;;;-60
2019/06/02 09:06:52;;;;;;;3.07;1.94;;;;;;;20.78;52.72;100672.31;;;;-54
2019/06/02 09:09:52;;;;;;;9.98;1.91;;;;;;;20.81;52.69;100667.94;;;;-57
2019/06/02 09:12:51;;;;;;;8.46;2.25;;;;;;;20.83;52.75;100659.97;;;;-54
2019/06/02 09:15:51;;;;;;;6.21;1.97;;;;;;;20.85;52.71;100659.15;;;;-57
2019/06/02 09:18:51;;;;;;;5.84;1.86;;;;;;;20.87;52.79;100658.06;;;;-54
2019/06/02 09:21:52;;;;;;;5.62;1.97;;;;;;;20.89;52.86;100657.20;;;;-58
2019/06/02 09:24:51;;;;;;;8.45;1.91;;;;;;;20.91;52.73;100656.55;;;;-66
2019/06/02 09:27:52;;;;;;;8.82;2.05;;;;;;;20.93;52.89;100651.66;;;;-59
2019/06/02 09:30:52;;;;;;;5.21;2.24;;;;;;;20.95;52.78;100654.44;;;;-59
2019/06/02 09:33:51;;;;;;;5.40;2.14;;;;;;;20.98;53.02;100653.71;;;;-58
2019/06/02 09:36:51;;;;;;;8.95;2.44;;;;;;;21.00;53.37;100648.02;;;;-56
2019/06/02 09:39:51;;;;;;;8.95;2.34;;;;;;;21.03;53.07;100648.05;;;;-52
2019/06/02 09:42:51;;;;;;;9.28;2.29;;;;;;;21.05;52.93;100640.03;;;;-57
2019/06/02 09:45:51;;;;;;;5.63;2.27;;;;;;;21.07;53.06;100644.92;;;;-61
2019/06/02 09:48:51;;;;;;;7.36;2.36;;;;;;;21.09;52.95;100640.97;;;;-61
2019/06/02 09:51:51;;;;;;;4.25;2.41;;;;;;;21.10;53.12;100648.27;;;;-55
2019/06/02 09:54:52;;;;;;;7.41;2.35;;;;;;;21.12;53.36;100645.12;;;;-54
2019/06/02 09:57:51;;;;;;;7.13;2.55;;;;;;;21.13;53.20;100640.97;;;;-62
2019/06/02 10:00:51;;;;;;;7.32;2.57;;;;;;;21.15;53.12;100637.28;;;;-60
2019/06/02 10:03:51;;;;;;;7.81;2.36;;;;;;;21.17;53.15;100631.95;;;;-58
2019/06/02 10:06:52;;;;;;;7.21;2.26;;;;;;;21.17;52.97;100627.29;;;;-58
2019/06/02 10:09:51;;;;;;;7.05;2.19;;;;;;;21.18;52.90;100632.09;;;;-60
2019/06/02 10:12:51;;;;;;;10.02;2.46;;;;;;;21.19;53.18;100630.02;;;;-61
2019/06/02 10:15:52;;;;;;;8.83;2.40;;;;;;;21.20;52.93;100625.36;;;;-55
2019/06/02 10:18:52;;;;;;;9.72;2.55;;;;;;;21.21;52.79;100619.02;;;;-58
2019/06/02 10:21:52;;;;;;;8.27;2.54;;;;;;;21.22;52.81;100620.73;;;;-58
2019/06/02 10:24:51;;;;;;;7.09;2.37;;;;;;;21.24;52.83;100616.11;;;;-58
2019/06/02 10:27:51;;;;;;;7.91;2.49;;;;;;;21.24;52.82;100617.45;;;;-61
2019/06/02 10:30:51;;;;;;;8.75;2.45;;;;;;;21.25;52.88;100613.06;;;;-65
2019/06/02 10:33:51;;;;;;;6.47;2.19;;;;;;;21.25;52.77;100614.74;;;;-59
2019/06/02 10:36:52;;;;;;;9.31;2.65;;;;;;;21.26;52.62;100611.26;;;;-60
2019/06/02 10:39:52;;;;;;;6.85;2.31;;;;;;;21.27;52.63;100606.99;;;;-59
2019/06/02 10:42:51;;;;;;;3.97;2.34;;;;;;;21.27;52.45;100604.81;;;;-58
2019/06/02 10:45:51;;;;;;;5.57;2.12;;;;;;;21.28;52.59;100603.77;;;;-61
2019/06/02 10:48:52;;;;;;;6.23;2.27;;;;;;;21.28;52.66;100599.64;;;;-61
2019/06/02 10:51:52;;;;;;;7.71;2.49;;;;;;;21.29;52.64;100605.23;;;;-54
2019/06/02 10:54:52;;;;;;;5.03;2.14;;;;;;;21.30;52.68;100598.11;;;;-54
2019/06/02 10:57:51;;;;;;;6.22;2.39;;;;;;;21.31;52.36;100593.70;;;;-53
2019/06/02 11:00:51;;;;;;;7.57;2.37;;;;;;;21.30;52.25;100585.04;;;;-54
2019/06/02 11:03:52;;;;;;;6.41;2.34;;;;;;;21.30;52.17;100582.41;;;;-54
2019/06/02 11:06:52;;;;;;;5.47;2.19;;;;;;;21.30;52.26;100581.91;;;;-54
2019/06/02 11:09:52;;;;;;;5.55;2.07;;;;;;;21.28;52.12;100571.19;;;;-54
2019/06/02 11:12:51;;;;;;;7.27;2.43;;;;;;;21.30;52.13;100569.98;;;;-54
2019/06/02 11:15:51;;;;;;;4.57;2.24;;;;;;;21.29;52.04;100567.66;;;;-54
2019/06/02 11:18:52;;;;;;;6.05;2.19;;;;;;;21.30;52.04;100564.95;;;;-54
2019/06/02 11:21:52;;;;;;;8.03;2.39;;;;;;;21.29;52.02;100553.82;;;;-54
2019/06/02 11:24:52;;;;;;;5.77;2.17;;;;;;;21.29;51.95;100549.45;;;;-55
2019/06/02 11:27:52;;;;;;;4.58;2.15;;;;;;;21.28;51.88;100549.08;;;;-53
2019/06/02 11:30:51;;;;;;;3.52;2.00;;;;;;;21.28;51.98;100546.29;;;;-54
2019/06/02 11:33:51;;;;;;;7.11;2.37;;;;;;;21.27;51.82;100535.94;;;;-53
2019/06/02 11:36:51;;;;;;;6.86;2.31;;;;;;;21.25;51.97;100537.55;;;;-53
2019/06/02 11:39:52;;;;;;;4.77;2.42;;;;;;;21.23;52.04;100535.95;;;;-53
2019/06/02 11:42:52;;;;;;;5.03;2.43;;;;;;;21.22;51.99;100534.33;;;;-53
2019/06/02 11:45:51;;;;;;;7.65;2.31;;;;;;;21.20;52.00;100527.94;;;;-53
2019/06/02 11:48:52;;;;;;;4.31;2.23;;;;;;;21.19;51.90;100526.22;;;;-53
2019/06/02 11:51:51;;;;;;;6.21;2.49;;;;;;;21.18;51.92;100525.62;;;;-53
2019/06/02 11:54:52;;;;;;;5.97;2.44;;;;;;;21.17;51.92;100521.71;;;;-54
2019/06/02 11:57:51;;;;;;;4.91;2.49;;;;;;;21.16;51.87;100511.59;;;;-53
2019/06/02 12:00:51;;;;;;;7.53;2.87;;;;;;;21.17;51.74;100511.23;;;;-53
2019/06/02 12:03:52;;;;;;;7.33;2.99;;;;;;;21.17;51.68;100504.25;;;;-59
2019/06/02 12:06:52;;;;;;;6.86;2.95;;;;;;;21.19;52.02;100503.31;;;;-60
2019/06/02 12:09:52;;;;;;;7.31;3.10;;;;;;;21.20;52.10;100500.33;;;;-58
2019/06/02 12:12:51;;;;;;;8.07;3.49;;;;;;;21.21;52.19;100491.97;;;;-56
2019/06/02 12:15:51;;;;;;;6.92;3.39;;;;;;;21.23;52.20;100489.42;;;;-58
2019/06/02 12:18:51;;;;;;;6.93;3.31;;;;;;;21.25;52.34;100488.33;;;;-57
2019/06/02 12:21:51;;;;;;;10.46;3.61;;;;;;;21.26;52.39;100478.05;;;;-58
2019/06/02 12:24:51;;;;;;;9.59;3.61;;;;;;;21.26;52.37;100474.59;;;;-58
2019/06/02 12:27:51;;;;;;;10.47;4.52;;;;;;;21.28;52.24;100478.86;;;;-58
2019/06/02 12:30:52;;;;;;;13.87;5.19;;;;;;;21.33;52.99;100476.36;;;;-58
2019/06/02 12:33:51;;;;;;;15.39;5.32;;;;;;;21.33;52.17;100470.81;;;;-55
2019/06/02 12:36:52;;;;;;;12.98;4.81;;;;;;;21.34;52.26;100471.13;;;;-65
2019/06/02 12:39:51;;;;;;;14.64;4.89;;;;;;;21.35;52.49;100467.70;;;;-55
2019/06/02 12:42:52;;;;;;;15.19;5.41;;;;;;;21.35;52.54;100465.52;;;;-58
2019/06/02 12:45:51;;;;;;;11.67;5.41;;;;;;;21.33;52.55;100466.85;;;;-60
2019/06/02 12:48:52;;;;;;;13.27;5.27;;;;;;;21.33;52.45;100470.05;;;;-55
2019/06/02 12:51:51;;;;;;;16.49;5.50;;;;;;;21.33;52.57;100463.66;;;;-66
2019/06/02 12:54:51;;;;;;;12.20;5.71;;;;;;;21.34;52.57;100463.70;;;;-57
2019/06/02 12:57:52;;;;;;;17.33;6.13;;;;;;;21.33;52.50;100458.39;;;;-59
2019/06/02 13:00:51;;;;;;;17.71;6.65;;;;;;;21.33;52.49;100452.51;;;;-58
2019/06/02 13:03:51;;;;;;;14.67;6.93;;;;;;;21.34;52.55;100445.72;;;;-58
2019/06/02 13:06:52;;;;;;;16.05;6.69;;;;;;;21.34;52.48;100444.64;;;;-58
2019/06/02 13:09:52;;;;;;;14.27;6.65;;;;;;;21.35;52.52;100443.91;;;;-59
2019/06/02 13:12:52;;;;;;;14.79;7.38;;;;;;;21.34;52.55;100435.64;;;;-55
2019/06/02 13:15:51;;;;;;;13.90;7.33;;;;;;;21.34;52.53;100435.74;;;;-58
2019/06/02 13:18:52;;;;;;;15.34;7.50;;;;;;;21.35;52.46;100432.25;;;;-59
2019/06/02 13:21:51;;;;;;;15.74;7.39;;;;;;;21.35;52.54;100434.09;;;;-60
2019/06/02 13:24:52;;;;;;;16.65;7.73;;;;;;;21.35;52.40;100429.12;;;;-62
2019/06/02 13:27:52;;;;;;;15.83;7.66;;;;;;;21.34;52.35;100422.91;;;;-59
2019/06/02 13:30:52;;;;;;;16.84;8.21;;;;;;;21.34;52.43;100418.88;;;;-56
2019/06/02 13:33:51;;;;;;;16.98;7.80;;;;;;;21.33;52.24;100415.45;;;;-56
2019/06/02 13:36:51;;;;;;;18.04;8.04;;;;;;;21.32;52.23;100410.98;;;;-56
2019/06/02 13:39:51;;;;;;;16.49;8.13;;;;;;;21.31;52.20;100413.63;;;;-55
2019/06/02 13:42:52;;;;;;;16.02;8.07;;;;;;;21.30;52.17;100410.73;;;;-52
2019/06/02 13:45:52;;;;;;;16.88;8.57;;;;;;;21.29;52.16;100404.83;;;;-51
2019/06/02 13:48:52;;;;;;;18.96;8.43;;;;;;;21.28;52.11;100397.66;;;;-52
2019/06/02 13:51:51;;;;;;;15.53;8.15;;;;;;;21.28;52.07;100387.81;;;;-52
2019/06/02 13:54:51;;;;;;;14.81;7.82;;;;;;;21.27;52.02;100394.77;;;;-52
2019/06/02 13:57:51;;;;;;;12.94;8.00;;;;;;;21.26;51.99;100385.33;;;;-55
2019/06/02 14:00:52;;;;;;;16.91;8.27;;;;;;;21.25;51.95;100384.12;;;;-55
2019/06/02 14:03:51;;;;;;;17.19;8.06;;;;;;;21.25;51.92;100379.14;;;;-56
2019/06/02 14:06:52;;;;;;;13.19;8.15;;;;;;;21.24;51.91;100373.67;;;;-57
2019/06/02 14:09:51;;;;;;;14.99;8.21;;;;;;;21.24;51.88;100372.05;;;;-55
2019/06/02 14:12:52;;;;;;;15.16;8.02;;;;;;;21.23;51.86;100370.78;;;;-55
2019/06/02 14:15:51;;;;;;;15.81;7.89;;;;;;;21.22;51.82;100364.93;;;;-56
2019/06/02 14:18:51;;;;;;;15.02;8.59;;;;;;;21.21;51.83;100356.59;;;;-56
2019/06/02 14:21:51;;;;;;;15.52;8.39;;;;;;;21.21;51.82;100355.48;;;;-56
2019/06/02 14:24:51;;;;;;;15.09;8.03;;;;;;;21.20;51.80;100350.85;;;;-55
2019/06/02 14:27:51;;;;;;;13.35;8.09;;;;;;;21.19;51.79;100351.31;;;;-56
2019/06/02 14:30:52;;;;;;;14.11;7.90;;;;;;;21.19;51.71;100346.68;;;;-57
2019/06/02 14:33:52;;;;;;;16.82;8.23;;;;;;;21.18;51.78;100341.55;;;;-55
2019/06/02 14:36:51;;;;;;;14.57;8.23;;;;;;;21.18;51.71;100346.48;;;;-56
2019/06/02 14:39:51;;;;;;;15.44;8.56;;;;;;;21.17;51.73;100343.52;;;;-55
2019/06/02 14:42:51;;;;;;;14.49;7.83;;;;;;;21.16;51.74;100342.64;;;;-57
2019/06/02 14:45:51;;;;;;;14.59;7.93;;;;;;;21.16;51.69;100334.92;;;;-57
2019/06/02 14:48:51;;;;;;;13.33;8.06;;;;;;;21.15;51.72;100332.70;;;;-56
2019/06/02 14:51:52;;;;;;;13.71;8.13;;;;;;;21.17;51.76;100337.98;;;;-52
2019/06/02 14:54:51;;;;;;;12.74;7.70;;;;;;;21.17;51.75;100334.19;;;;-52
2019/06/02 14:57:51;;;;;;;16.62;7.97;;;;;;;21.19;51.79;100329.22;;;;-54
2019/06/02 15:00:51;;;;;;;15.11;8.17;;;;;;;21.18;51.77;100323.73;;;;-54
2019/06/02 15:03:51;;;;;;;14.73;7.85;;;;;;;21.17;51.85;100320.84;;;;-54
2019/06/02 15:06:51;;;;;;;13.83;7.99;;;;;;;21.16;51.85;100316.45;;;;-54
2019/06/02 15:09:51;;;;;;;15.74;8.39;;;;;;;21.17;51.96;100308.83;;;;-56
2019/06/02 15:12:51;;;;;;;15.13;8.53;;;;;;;21.18;51.90;100308.19;;;;-53
2019/06/02 15:15:51;;;;;;;13.99;7.83;;;;;;;21.17;52.03;100304.06;;;;-54
2019/06/02 15:18:51;;;;;;;14.22;8.11;;;;;;;21.19;51.92;100307.15;;;;-54
2019/06/02 15:21:51;;;;;;;15.05;8.07;;;;;;;21.18;51.93;100307.72;;;;-51
2019/06/02 15:24:51;;;;;;;16.11;8.13;;;;;;;21.17;51.86;100301.30;;;;-51
2019/06/02 15:27:51;;;;;;;12.31;7.64;;;;;;;21.17;51.93;100299.52;;;;-51
2019/06/02 15:30:51;;;;;;;15.44;8.35;;;;;;;21.18;52.17;100301.00;;;;-57
2019/06/02 15:33:51;;;;;;;13.85;8.03;;;;;;;21.20;52.05;100303.83;;;;-49
2019/06/02 15:36:52;;;;;;;14.62;7.84;;;;;;;21.20;52.13;100297.44;;;;-52
2019/06/02 15:39:51;;;;;;;16.52;7.63;;;;;;;21.23;52.63;100297.05;;;;-50
2019/06/02 15:42:51;;;;;;;18.19;7.93;;;;;;;21.25;52.35;100289.22;;;;-52
2019/06/02 15:45:51;;;;;;;19.25;8.18;;;;;;;21.27;52.36;100284.75;;;;-55
2019/06/02 15:48:51;;;;;;;19.60;8.35;;;;;;;21.28;52.75;100287.03;;;;-49
2019/06/02 15:51:51;;;;;;;21.99;8.21;;;;;;;21.30;52.52;100285.16;;;;-51
2019/06/02 15:54:51;;;;;;;14.78;7.93;;;;;;;21.31;52.45;100283.34;;;;-49
2019/06/02 15:57:52;;;;;;;20.61;8.13;;;;;;;21.32;52.48;100281.87;;;;-49
2019/06/02 16:00:51;;;;;;;16.21;7.93;;;;;;;21.32;52.53;100281.30;;;;-50
2019/06/02 16:03:51;;;;;;;20.94;8.33;;;;;;;21.34;52.60;100278.17;;;;-53
2019/06/02 16:06:51;;;;;;;18.17;7.60;;;;;;;21.33;52.65;100273.27;;;;-51
2019/06/02 16:09:51;;;;;;;25.11;8.24;;;;;;;21.36;52.86;100273.50;;;;-50
2019/06/02 16:12:51;;;;;;;19.90;7.50;;;;;;;21.38;52.95;100274.52;;;;-52
2019/06/02 16:15:51;;;;;;;18.33;7.33;;;;;;;21.39;53.22;100269.88;;;;-53
2019/06/02 16:18:51;;;;;;;18.68;8.02;;;;;;;21.38;52.73;100269.84;;;;-59
2019/06/02 16:21:52;;;;;;;20.70;7.93;;;;;;;21.38;52.97;100271.16;;;;-57
2019/06/02 16:24:52;;;;;;;18.61;8.29;;;;;;;21.39;52.90;100271.52;;;;-59
2019/06/02 16:27:51;;;;;;;20.72;8.07;;;;;;;21.38;52.89;100268.56;;;;-58
2019/06/02 16:30:51;;;;;;;17.13;7.78;;;;;;;21.39;52.73;100260.36;;;;-52
2019/06/02 16:33:51;;;;;;;18.38;7.63;;;;;;;21.39;52.67;100266.81;;;;-50
2019/06/02 16:36:51;;;;;;;14.47;7.78;;;;;;;21.38;52.70;100261.11;;;;-50